Time;durP1;ratioP1;P1;durP2;ratioP2;P2;SDS_P1;SDS_P2;PMS_P1;PMS_P2;Temp;Humidity;BMP_temperature;BMP_pressure;BME280_temperature;BME280_humidity;BME280_pressure;Samples;Min_cycle;Max_cycle;Signal;HPM_P1;HPM_P2
2023/06/29 05:01:23;;;;;;;;;33.33;29.33;;;;;25.13;58.95;-10719.69;5475921;23;45672;-85
2023/06/29 05:03:48;;;;;;;;;24.67;23.33;;;;;25.31;58.72;-11061.31;4903034;28;45530;-85
2023/06/29 05:06:14;;;;;;;;;37.67;30.33;;;;;25.00;59.39;-11396.94;4923286;28;45930;-85
2023/06/29 05:08:39;;;;;;;;;27.33;24.33;;;;;25.02;59.25;-11397.13;4898069;28;45509;-85
2023/06/29 05:11:05;;;;;;;;;32.33;31.00;;;;;25.00;59.12;-11396.94;4918612;28;45505;-85
2023/06/29 05:13:32;;;;;;;;;28.00;25.33;;;;;25.38;58.96;-11741.06;4890488;28;45525;-85
2023/06/29 05:15:57;;;;;;;;;33.33;27.67;;;;;25.17;59.10;-11399.03;4896904;28;45703;-85
2023/06/29 05:18:23;;;;;;;;;29.67;25.33;;;;;25.26;58.97;-12078.97;4899974;28;55790;-85
2023/06/29 05:20:48;;;;;;;;;32.67;29.67;;;;;25.01;59.14;-11736.34;4903862;28;45472;-85
2023/06/29 05:23:13;;;;;;;;;31.00;27.33;;;;;25.23;58.86;-11739.13;4901455;28;45400;-85
2023/06/29 05:25:40;;;;;;;;;31.00;28.00;;;;;25.42;59.11;-12081.06;4896558;28;45617;-85
2023/06/29 05:28:06;;;;;;;;;30.67;28.67;;;;;25.36;59.16;-12419.63;4897576;28;46276;-85
2023/06/29 05:30:31;;;;;;;;;34.33;31.00;;;;;25.39;59.42;-12420.13;4933750;28;45444;-85
2023/06/29 05:32:56;;;;;;;;;35.00;30.67;;;;;25.38;59.40;-12420.00;4928819;28;45538;-85
2023/06/29 05:35:22;;;;;;;;;41.67;33.00;;;;;25.36;59.10;-12759.00;4926048;28;45597;-85
2023/06/29 05:37:47;;;;;;;;;37.33;31.33;;;;;25.20;59.19;-12756.69;4896841;28;47107;-85
2023/06/29 05:40:13;;;;;;;;;33.00;30.67;;;;;25.21;59.57;-13096.16;4902164;28;45431;-85
2023/06/29 05:42:38;;;;;;;;;35.67;31.33;;;;;25.26;59.53;-13096.94;4943973;28;45563;-85
2023/06/29 05:45:04;;;;;;;;;29.00;22.00;;;;;25.36;59.58;-13098.41;4899320;28;45491;-85
2023/06/29 05:47:29;;;;;;;;;36.33;29.67;;;;;25.37;59.46;-13098.56;4920317;28;45651;-84
2023/06/29 05:49:55;;;;;;;;;30.00;27.33;;;;;25.34;59.65;-13098.09;4900353;28;45422;-85
2023/06/29 05:52:20;;;;;;;;;28.67;26.67;;;;;25.25;58.98;-13096.78;4912842;28;45495;-85
2023/06/29 05:54:48;;;;;;;;;34.00;31.00;;;;;25.34;59.08;-13437.31;4909573;28;45548;-85
2023/06/29 05:57:17;;;;;;;;;28.00;25.00;;;;;25.31;59.31;-13097.56;4903827;28;47160;-86
2023/06/29 05:59:45;;;;;;;;;31.33;28.33;;;;;25.51;59.30;-13439.97;4897436;28;45503;-85
2023/06/29 06:02:10;;;;;;;;;31.00;27.33;;;;;25.53;59.50;-13440.31;4966313;28;45582;-83
2023/06/29 06:04:36;;;;;;;;;29.67;25.00;;;;;25.55;58.86;-13440.69;4975108;28;45911;-82
2023/06/29 06:07:04;;;;;;;;;25.67;24.33;;;;;25.54;58.92;-13440.53;4975627;28;45783;-82
2023/06/29 06:09:30;;;;;;;;;28.67;25.33;;;;;25.38;58.76;-13438.06;4976915;28;45573;-82
2023/06/29 06:11:55;;;;;;;;;28.67;25.33;;;;;25.57;58.74;-13441.03;4975580;28;45546;-80
2023/06/29 06:14:20;;;;;;;;;31.67;27.33;;;;;25.27;59.07;-13436.38;4974624;28;45495;-83
2023/06/29 06:16:46;;;;;;;;;28.33;27.00;;;;;25.64;59.29;-13442.06;4974728;28;46591;-83
2023/06/29 06:19:11;;;;;;;;;23.00;14.33;;;;;25.64;58.72;-13102.69;4976259;28;45417;-82
2023/06/29 06:21:37;;;;;;;;;28.67;28.00;;;;;25.65;58.76;-13102.75;4975818;28;45534;-82
2023/06/29 06:24:02;;;;;;;;;32.00;28.33;;;;;25.64;59.10;-13102.69;4974410;28;45476;-83
2023/06/29 06:26:28;;;;;;;;;32.33;29.00;;;;;25.68;58.60;-13442.72;4980051;28;45627;-82
2023/06/29 06:28:53;;;;;;;;;34.33;26.33;;;;;25.59;58.90;-13441.34;4973689;28;45499;-81
2023/06/29 06:31:19;;;;;;;;;34.33;29.33;;;;;25.63;58.68;-13441.91;4975498;28;45523;-82
2023/06/29 06:33:45;;;;;;;;;28.33;26.67;;;;;25.70;58.53;-13443.13;4976015;28;45511;-82
2023/06/29 06:36:11;;;;;;;;;28.00;26.67;;;;;25.63;58.82;-13441.91;4974608;28;46488;-82
2023/06/29 06:38:36;;;;;;;;;37.67;29.67;;;;;25.68;58.82;-13442.78;4973656;28;45575;-82
2023/06/29 06:41:01;;;;;;;;;32.67;29.33;;;;;25.70;59.09;-13782.50;4974080;28;45437;-84
2023/06/29 06:43:29;;;;;;;;;33.33;30.00;;;;;25.43;58.85;-13778.19;4972549;28;45590;-83
2023/06/29 06:45:54;;;;;;;;;29.00;26.33;;;;;25.65;59.12;-13442.22;4971398;28;47041;-83
2023/06/29 06:48:20;;;;;;;;;38.33;31.00;;;;;25.61;59.18;-14120.38;4972093;28;45463;-83
2023/06/29 06:50:45;;;;;;;;;34.33;30.00;;;;;25.64;59.32;-13781.50;4973647;28;45464;-83
2023/06/29 06:53:11;;;;;;;;;30.33;27.67;;;;;25.56;59.12;-13780.25;4975080;28;45538;-81
2023/06/29 06:55:36;;;;;;;;;35.67;32.00;;;;;25.68;59.01;-13782.25;4973722;28;46043;-81
2023/06/29 06:58:01;;;;;;;;;37.00;29.00;;;;;25.67;58.76;-14121.41;4974089;28;45377;-81
2023/06/29 07:00:27;;;;;;;;;34.33;32.67;;;;;25.67;59.24;-14121.50;4970715;28;45810;-81
2023/06/29 07:02:52;;;;;;;;;31.33;30.00;;;;;25.69;59.33;-14461.16;4893216;28;45545;-82
2023/06/29 07:05:18;;;;;;;;;33.00;28.33;;;;;25.57;59.02;-14119.78;4899944;28;46183;-82
2023/06/29 07:07:45;;;;;;;;;33.00;30.33;;;;;25.70;59.12;-14121.94;4901721;28;45882;-81
2023/06/29 07:10:12;;;;;;;;;34.33;30.67;;;;;25.74;58.96;-14122.53;4918401;28;45465;-85
2023/06/29 07:12:37;;;;;;;;;30.00;28.67;;;;;25.65;58.80;-14460.44;4895460;28;45618;-83
2023/06/29 07:15:03;;;;;;;;;39.33;28.67;;;;;25.70;58.96;-14122.00;4899813;28;46013;-81
2023/06/29 07:17:28;;;;;;;;;74.25;60.25;;;;;25.88;58.87;-14464.44;4910013;28;45453;-81
2023/06/29 07:19:53;;;;;;;;;35.67;31.33;;;;;25.84;58.60;-14463.81;4911840;28;45964;-80
2023/06/29 07:22:19;;;;;;;;;40.33;32.00;;;;;25.94;59.15;-14465.50;4941801;28;46720;-86
2023/06/29 07:24:44;;;;;;;;;41.33;34.00;;;;;25.93;58.50;-14125.72;4932456;28;50758;-81
2023/06/29 07:27:09;;;;;;;;;36.67;32.67;;;;;25.93;58.60;-14125.78;4913582;28;45491;-80
2023/06/29 07:29:35;;;;;;;;;38.67;31.33;;;;;25.82;58.79;-14463.38;4888469;29;45881;-81
2023/06/29 07:32:00;;;;;;;;;39.00;33.00;;;;;25.96;58.51;-14126.22;4900881;28;45797;-80
2023/06/29 07:34:25;;;;;;;;;37.33;31.67;;;;;25.85;59.32;-14803.44;4884176;28;45835;-82
2023/06/29 07:36:51;;;;;;;;;38.67;31.67;;;;;25.95;58.61;-13786.56;4907917;28;45529;-80
2023/06/29 07:39:17;;;;;;;;;37.00;30.00;;;;;25.72;58.33;-13782.81;4918386;28;45661;-82
2023/06/29 07:41:43;;;;;;;;;30.33;29.67;;;;;25.97;58.36;-13786.91;4897626;28;45359;-82
2023/06/29 07:44:08;;;;;;;;;39.00;30.00;;;;;25.96;58.27;-13786.66;4896565;28;46953;-84
2023/06/29 07:46:34;;;;;;;;;36.00;30.33;;;;;26.00;58.51;-14127.00;4899810;28;45464;-82
2023/06/29 07:49:00;;;;;;;;;40.67;35.67;;;;;26.15;57.93;-13789.72;4902999;28;45772;-82
2023/06/29 07:51:31;;;;;;;;;41.67;30.00;;;;;26.09;58.12;-13788.88;4894628;28;45561;-86
2023/06/29 07:53:57;;;;;;;;;41.67;31.33;;;;;26.26;57.81;-13791.63;4898333;28;46375;-85
2023/06/29 07:56:22;;;;;;;;;34.33;30.67;;;;;26.33;57.93;-13792.72;4889547;28;45510;-84
2023/06/29 07:58:48;;;;;;;;;35.67;30.00;;;;;26.41;58.04;-13454.13;4890708;28;45609;-85
2023/06/29 08:01:13;;;;;;;;;35.33;30.33;;;;;26.44;57.92;-13794.53;4900968;28;45556;-84
2023/06/29 08:03:39;;;;;;;;;33.67;31.67;;;;;26.50;57.37;-13795.53;4888796;28;46249;-83
2023/06/29 08:06:05;;;;;;;;;34.00;30.67;;;;;26.59;57.08;-12777.03;4895934;28;45452;-80
2023/06/29 08:08:30;;;;;;;;;46.00;33.67;;;;;26.63;56.62;-12777.56;4890137;28;45493;-82
2023/06/29 08:10:56;;;;;;;;;33.67;30.33;;;;;26.51;56.78;-12775.91;4891577;29;45750;-82
2023/06/29 08:13:22;;;;;;;;;32.67;29.67;;;;;26.78;56.78;-12439.59;4881394;28;45912;-82
2023/06/29 08:15:48;;;;;;;;;41.00;32.67;;;;;26.86;56.04;-12100.59;4895850;29;45448;-82
2023/06/29 08:18:13;;;;;;;;;33.67;30.67;;;;;27.00;55.78;-12102.41;4889105;28;45524;-82
2023/06/29 08:20:38;;;;;;;;;33.67;28.00;;;;;27.03;55.86;-11762.56;4895952;29;45465;-82
2023/06/29 08:23:04;;;;;;;;;31.00;28.00;;;;;26.85;56.37;-12100.47;4891008;29;47237;-82
2023/06/29 08:25:30;;;;;;;;;35.33;32.00;;;;;26.92;55.69;-11761.09;4927819;28;45584;-82
2023/06/29 08:27:55;;;;;;;;;40.00;32.67;;;;;27.16;55.56;-11764.28;4976002;28;45451;-82
2023/06/29 08:30:21;;;;;;;;;44.67;33.00;;;;;27.15;55.15;-11423.72;4976248;28;45492;-82
2023/06/29 08:32:48;;;;;;;;;37.67;31.33;;;;;27.27;55.08;-11084.69;4975645;28;47143;-82
2023/06/29 08:35:13;;;;;;;;;36.67;32.33;;;;;27.21;55.31;-11083.94;4961400;28;45464;-82
2023/06/29 08:37:39;;;;;;;;;46.67;34.67;;;;;27.12;54.54;-10401.91;4896381;28;45369;-82
2023/06/29 08:40:05;;;;;;;;;34.00;32.00;;;;;27.22;54.60;-10403.00;4895570;28;45688;-82
2023/06/29 08:42:30;;;;;;;;;35.67;31.33;;;;;27.21;54.90;-10743.38;4899919;28;46123;-82
2023/06/29 08:44:56;;;;;;;;;36.33;32.00;;;;;27.30;54.67;-10403.84;4898487;28;45357;-82
2023/06/29 08:47:23;;;;;;;;;40.33;33.00;;;;;27.39;54.08;-9382.72;4907864;28;45446;-83
2023/06/29 08:49:53;;;;;;;;;28.33;27.33;;;;;27.44;54.58;-10405.31;4895277;29;45361;-82
2023/06/29 08:52:25;;;;;;;;;31.33;28.67;;;;;27.45;54.47;-9724.06;4929666;28;46659;-81
2023/06/29 08:54:51;;;;;;;;;35.67;30.67;;;;;27.49;54.44;-9724.47;4939841;28;45480;-82
2023/06/29 08:57:18;;;;;;;;;39.67;33.00;;;;;27.32;54.33;-9382.13;4942214;28;45810;-82
2023/06/29 08:59:44;;;;;;;;;39.67;33.33;;;;;27.54;54.32;-9724.97;4925760;28;45491;-82
2023/06/29 09:02:10;;;;;;;;;38.33;32.00;;;;;27.52;54.11;-9383.91;4904095;28;46072;-83
2023/06/29 09:04:36;;;;;;;;;36.33;30.67;;;;;27.48;53.61;-8701.88;4953187;28;45448;-83
2023/06/29 09:07:03;;;;;;;;;35.33;30.33;;;;;27.69;53.91;-9044.53;4907082;28;45912;-84
2023/06/29 09:09:32;;;;;;;;;38.67;32.67;;;;;27.76;53.29;-9045.19;4907590;28;45488;-92
2023/06/29 09:14:44;;;;;;;;;30.67;29.33;;;;;28.09;52.16;-8024.44;4931251;23;71409;-80
2023/06/29 09:17:18;;;;;;;;;33.00;30.33;;;;;28.27;52.60;-8025.69;4925748;28;45472;-79
2023/06/29 09:19:56;;;;;;;;;39.67;31.00;;;;;28.24;52.57;-7684.13;4926376;28;45384;-79
2023/06/29 09:22:26;;;;;;;;;38.00;32.00;;;;;28.14;52.37;-7342.16;4925962;28;46315;-79
2023/06/29 09:24:58;;;;;;;;;34.00;30.33;;;;;28.12;52.63;-7000.72;4930843;28;45456;-79
2023/06/29 09:27:26;;;;;;;;;38.67;33.33;;;;;27.93;52.74;-6999.69;4916221;28;45729;-79
2023/06/29 09:29:53;;;;;;;;;33.33;28.33;;;;;28.04;52.85;-7000.28;4922459;28;45451;-79
2023/06/29 09:32:18;;;;;;;;;39.33;32.67;;;;;28.04;53.08;-7000.28;4932120;28;46526;-79
2023/06/29 09:34:48;;;;;;;;;29.67;29.00;;;;;28.05;52.89;-7341.66;4935100;28;45902;-80
2023/06/29 09:37:17;;;;;;;;;33.00;30.00;;;;;28.04;52.91;-7000.25;4927940;28;45435;-81
2023/06/29 09:39:58;;;;;;;;;34.33;30.67;;;;;28.07;52.90;-6659.09;4914062;28;46689;-81
2023/06/29 09:42:24;;;;;;;;;31.00;29.00;;;;;28.10;52.06;-6317.88;4916966;28;47088;-81
2023/06/29 09:44:50;;;;;;;;;35.67;30.33;;;;;28.19;51.88;-5976.78;4993349;28;45550;-80
2023/06/29 09:47:17;;;;;;;;;30.33;27.67;;;;;28.20;52.03;-5976.84;4935121;28;45472;-80
2023/06/29 09:49:47;;;;;;;;;33.00;28.67;;;;;28.14;51.94;-5635.16;4926353;28;47096;-81
2023/06/29 09:52:14;;;;;;;;;24.00;23.33;;;;;28.15;51.92;-5293.69;4916728;28;47432;-79
2023/06/29 09:54:40;;;;;;;;;32.33;29.33;;;;;28.19;51.85;-5293.78;4928819;28;45625;-79
2023/06/29 09:57:07;;;;;;;;;30.67;28.33;;;;;28.24;51.48;-4952.34;4924979;28;45492;-79
2023/06/29 09:59:37;;;;;;;;;31.33;27.33;;;;;28.24;51.57;-4952.31;4936275;28;45308;-79
2023/06/29 10:02:03;;;;;;;;;29.33;28.00;;;;;28.51;50.86;-4952.91;4927990;28;46204;-79
2023/06/29 10:04:29;;;;;;;;;31.00;30.33;;;;;28.79;50.83;-5295.41;4934109;28;45581;-79
2023/06/29 10:07:07;;;;;;;;;29.00;26.67;;;;;29.12;50.16;-4612.13;4924646;28;45368;-79
2023/06/29 10:09:40;;;;;;;;;34.00;31.00;;;;;29.27;49.52;-4270.19;4936017;28;45372;-79
2023/06/29 10:12:11;;;;;;;;;29.33;28.67;;;;;29.46;49.34;-3585.69;4925392;28;45472;-79
2023/06/29 10:14:38;;;;;;;;;35.67;29.67;;;;;29.51;48.86;-2558.34;4915926;28;45419;-81
2023/06/29 10:17:19;;;;;;;;;34.67;31.00;;;;;29.51;48.49;-1873.28;4916330;28;45471;-81
2023/06/29 10:19:46;;;;;;;;;37.00;32.33;;;;;29.47;48.38;-845.69;4916702;28;45645;-81
2023/06/29 10:22:15;;;;;;;;;32.33;31.00;;;;;29.33;48.86;-503.72;4916602;28;46307;-79
2023/06/29 10:24:56;;;;;;;;;33.33;29.67;;;;;29.38;48.88;-503.50;4924191;28;45502;-79
2023/06/29 10:27:25;;;;;;;;;28.33;26.00;;;;;29.50;48.78;-502.91;4918018;28;45537;-83
2023/06/29 10:29:50;;;;;;;;;33.33;25.33;;;;;29.67;48.53;-502.06;4926993;28;45518;-80
2023/06/29 10:32:32;;;;;;;;;38.67;31.33;;;;;29.84;47.94;-501.22;4924465;28;45647;-79
2023/06/29 10:35:07;;;;;;;;;32.33;30.67;;;;;29.96;47.76;185.28;4924383;28;45467;-81
2023/06/29 10:37:36;;;;;;;;;32.00;30.00;;;;;29.84;47.85;870.47;4917216;28;45578;-81
2023/06/29 10:40:05;;;;;;;;;33.67;30.00;;;;;30.03;47.37;1214.88;4917471;28;45821;-81
2023/06/29 10:42:33;;;;;;;;;35.67;31.67;;;;;30.22;47.22;1559.53;4919932;28;46999;-81
2023/06/29 10:44:58;;;;;;;;;39.00;33.33;;;;;30.41;46.54;1561.09;4924242;28;45539;-81
2023/06/29 10:47:26;;;;;;;;;31.67;29.00;;;;;30.99;45.88;1909.50;4931202;28;45384;-82
2023/06/29 10:50:14;;;;;;;;;35.67;30.67;;;;;31.32;45.08;2600.28;4920797;28;45447;-82
2023/06/29 10:52:42;;;;;;;;;32.00;30.00;;;;;31.93;44.24;4327.97;4916156;28;47502;-81
2023/06/29 10:55:25;;;;;;;;;34.00;29.00;;;;;32.29;43.50;6055.91;4922914;28;45493;-81
2023/06/29 10:57:51;;;;;;;;;41.67;32.67;;;;;32.67;42.85;7441.75;4930462;28;45524;-81
2023/06/29 11:00:17;;;;;;;;;34.00;31.67;;;;;32.84;42.49;10207.13;4919309;28;45485;-81
2023/06/29 11:02:44;;;;;;;;;38.00;32.67;;;;;33.07;41.91;11940.31;4929331;28;45557;-81
2023/06/29 11:05:20;;;;;;;;;36.33;31.33;;;;;32.52;41.91;14691.25;4918922;28;45423;-82
2023/06/29 11:07:50;;;;;;;;;38.33;33.00;;;;;33.03;41.48;16781.88;4900890;28;45726;-92
2023/06/29 11:10:15;;;;;;;;;36.67;32.33;;;;;32.84;41.58;18506.22;4900989;28;45523;-92
2023/06/29 11:12:41;;;;;;;;;38.00;32.67;;;;;31.92;41.63;19857.31;4917266;28;46049;-91
2023/06/29 11:15:14;;;;;;;;;37.33;32.00;;;;;32.34;42.11;21257.00;4922333;28;46463;-92
2023/06/29 11:17:42;;;;;;;;;32.67;28.67;;;;;31.96;42.67;22626.34;4910321;28;45585;-92
2023/06/29 11:20:19;;;;;;;;;32.67;28.67;;;;;31.52;42.79;23515.97;4920889;28;45475;-91
2023/06/29 11:22:45;;;;;;;;;32.67;30.33;;;;;31.32;43.52;24161.22;4935769;28;48457;-91
2023/06/29 11:25:15;;;;;;;;;44.33;36.00;;;;;31.32;43.81;24469.03;4935623;28;45404;-91
2023/06/29 11:27:42;;;;;;;;;39.67;33.00;;;;;31.02;43.82;24418.06;4924704;28;45442;-92
2023/06/29 11:30:10;;;;;;;;;37.00;33.00;;;;;30.72;44.94;24059.16;4931187;28;45467;-92
2023/06/29 11:32:40;;;;;;;;;35.00;32.00;;;;;30.45;45.13;24290.16;4919310;28;47558;-93
2023/06/29 11:35:10;;;;;;;;;43.67;36.33;;;;;30.10;45.73;23584.47;4921740;28;45420;-92
2023/06/29 11:37:37;;;;;;;;;42.00;34.33;;;;;30.01;45.81;23235.44;4900689;28;45509;-91
2023/06/29 11:40:10;;;;;;;;;39.00;33.00;;;;;29.40;46.15;22520.47;4920132;28;45575;-92
2023/06/29 11:42:36;;;;;;;;;41.33;36.00;;;;;29.32;46.32;22172.47;4918917;28;47554;-91
2023/06/29 11:45:04;;;;;;;;;47.00;39.00;;;;;29.31;46.21;22171.84;4906915;28;45387;-91
2023/06/29 11:47:30;;;;;;;;;43.33;35.67;;;;;29.37;47.70;20451.88;4916514;28;45404;-94
2023/06/29 11:49:59;;;;;;;;;33.33;30.33;;;;;29.14;47.50;19410.09;4917298;28;45451;-94
2023/06/29 11:52:30;;;;;;;;;37.67;32.00;;;;;29.30;47.51;18727.25;4919501;28;47182;-94
2023/06/29 11:54:55;;;;;;;;;41.00;34.00;;;;;28.84;47.25;18023.22;4920068;28;45744;-93
2023/06/29 11:57:21;;;;;;;;;26.67;25.67;;;;;29.51;47.17;17701.81;4936469;28;45608;-93
2023/06/29 11:59:46;;;;;;;;;32.67;29.33;;;;;30.04;46.39;17030.66;4917824;28;45395;-91
2023/06/29 12:02:14;;;;;;;;;42.00;36.67;;;;;29.83;46.23;17023.81;4925987;28;47261;-91
2023/06/29 12:04:53;;;;;;;;;40.00;34.33;;;;;30.39;45.67;17731.31;4926201;28;45435;-90
2023/06/29 12:07:18;;;;;;;;;39.00;34.67;;;;;30.57;44.85;18427.31;4899501;28;45481;-93
2023/06/29 12:09:47;;;;;;;;;44.00;36.67;;;;;30.82;44.53;19126.06;4928922;28;45499;-92
2023/06/29 12:12:12;;;;;;;;;40.33;32.33;;;;;30.59;44.61;19117.78;4929156;28;46500;-92
2023/06/29 12:14:37;;;;;;;;;43.33;33.33;;;;;30.54;44.61;19805.97;4931400;28;45926;-92
2023/06/29 12:17:03;;;;;;;;;39.00;33.33;;;;;31.02;44.15;20169.06;4916775;28;45848;-92
2023/06/29 12:19:36;;;;;;;;;45.00;34.67;;;;;30.95;44.26;20857.22;4927753;28;45475;-92
2023/06/29 12:22:04;;;;;;;;;37.67;32.00;;;;;30.60;44.08;21534.16;4917887;28;46729;-91
2023/06/29 12:24:29;;;;;;;;;38.33;34.00;;;;;31.08;44.00;21898.56;4915475;28;45432;-92
2023/06/29 12:26:55;;;;;;;;;36.33;31.33;;;;;30.65;44.04;22226.75;4922490;28;45661;-91
2023/06/29 12:29:20;;;;;;;;;34.00;31.33;;;;;30.65;43.65;23262.81;4915541;28;45387;-91
2023/06/29 12:31:45;;;;;;;;;37.33;31.33;;;;;30.89;43.42;23699.38;4927788;28;45390;-90
2023/06/29 12:34:11;;;;;;;;;33.33;31.67;;;;;30.73;43.23;24653.50;4921446;28;45391;-91
2023/06/29 12:36:36;;;;;;;;;35.00;31.33;;;;;30.47;44.13;25427.25;4902674;28;45436;-91
2023/06/29 12:39:01;;;;;;;;;28.33;28.33;;;;;30.25;42.95;27481.81;4926906;28;45621;-90
2023/06/29 12:41:27;;;;;;;;;34.67;31.00;;;;;30.63;43.88;27098.00;4929980;28;46133;-91
2023/06/29 12:43:53;;;;;;;;;28.50;27.50;;;;;30.60;42.63;29549.94;4936337;28;45569;-91
2023/06/29 12:46:19;;;;;;;;;31.00;29.67;;;;;30.30;43.08;29523.31;4921910;28;45511;-91
2023/06/29 12:48:45;;;;;;;;;31.33;28.67;;;;;29.63;43.59;29701.63;4930841;28;45474;-91
2023/06/29 12:51:11;;;;;;;;;33.00;30.33;;;;;30.72;43.47;30548.25;4927501;28;45599;-92
2023/06/29 12:53:38;;;;;;;;;35.33;30.67;;;;;30.48;43.61;30894.75;4917586;28;45466;-91
2023/06/29 12:56:03;;;;;;;;;34.00;31.33;;;;;30.49;43.67;31292.97;4987648;28;45399;-90
2023/06/29 12:58:29;;;;;;;;;38.00;32.33;;;;;30.16;43.57;31525.63;4933669;28;45391;-91
2023/06/29 13:00:54;;;;;;;;;33.00;30.67;;;;;29.98;44.35;31596.69;4935714;28;45484;-91
2023/06/29 13:03:19;;;;;;;;;34.33;29.67;;;;;30.33;43.66;32727.13;4937068;28;45336;-92
2023/06/29 13:05:48;;;;;;;;;27.67;26.00;;;;;29.95;44.22;31803.28;4905761;28;45761;-92
2023/06/29 13:08:14;;;;;;;;;33.33;28.33;;;;;29.84;43.88;31691.63;4902072;28;45691;-91
2023/06/29 13:10:39;;;;;;;;;28.67;28.00;;;;;30.21;44.07;31420.66;4931324;28;45400;-91
2023/06/29 13:13:05;;;;;;;;;38.00;30.33;;;;;30.40;44.20;31577.13;4920222;28;45563;-92
2023/06/29 13:15:30;;;;;;;;;26.67;25.00;;;;;30.06;44.09;32403.75;4936044;28;45535;-91
2023/06/29 13:17:55;;;;;;;;;31.00;23.67;;;;;30.06;43.75;32533.75;4922063;28;45578;-92
2023/06/29 13:20:21;;;;;;;;;32.00;27.00;;;;;29.94;44.34;33150.91;4920940;28;46322;-91
2023/06/29 13:22:46;;;;;;;;;32.00;26.33;;;;;30.11;44.50;33179.66;4935850;28;45748;-92
2023/06/29 13:25:12;;;;;;;;;29.00;20.67;;;;;29.68;44.34;33276.19;4926361;28;45466;-91
2023/06/29 13:27:39;;;;;;;;;27.67;25.00;;;;;28.97;44.66;33933.88;4917541;28;45508;-92
2023/06/29 13:30:06;;;;;;;;;30.00;25.67;;;;;29.40;44.70;34626.22;4932404;28;47217;-91
2023/06/29 13:32:32;;;;;;;;;22.33;21.33;;;;;29.45;44.56;35002.44;4910463;28;45476;-91
2023/06/29 13:34:57;;;;;;;;;26.33;24.67;;;;;28.80;45.27;34482.38;4907467;28;45391;-92
2023/06/29 13:37:23;;;;;;;;;22.67;22.67;;;;;28.94;45.10;34711.72;4930894;28;45398;-91
2023/06/29 13:39:49;;;;;;;;;23.33;20.00;;;;;28.74;45.90;33728.38;4911922;28;46998;-91
2023/06/29 13:42:15;;;;;;;;;21.33;21.00;;;;;28.54;45.56;34590.41;4918278;28;45379;-91
2023/06/29 13:44:45;;;;;;;;;23.00;20.00;;;;;29.01;45.77;34500.44;4904886;28;45446;-92
2023/06/29 13:47:21;;;;;;;;;20.67;20.00;;;;;28.48;44.98;36089.25;4920319;28;45628;-91
2023/06/29 13:49:47;;;;;;;;;26.67;22.33;;;;;27.61;45.30;35843.59;4915699;28;47296;-91
2023/06/29 13:52:12;;;;;;;;;22.67;21.33;;;;;28.25;46.00;34152.22;4914245;28;45941;-92
2023/06/29 13:54:38;;;;;;;;;17.00;15.67;;;;;28.45;45.02;36071.09;4915577;28;45892;-91
2023/06/29 13:57:05;;;;;;;;;22.33;17.33;;;;;28.59;45.58;34304.88;4993360;28;45359;-91
2023/06/29 13:59:30;;;;;;;;;19.67;19.00;;;;;28.34;45.87;33594.56;4931627;28;45580;-93
2023/06/29 14:01:56;;;;;;;;;21.00;19.00;;;;;28.69;44.98;33749.63;4925122;28;45478;-93
2023/06/29 14:04:22;;;;;;;;;22.00;21.33;;;;;28.47;45.32;33035.91;4929362;28;46527;-91
2023/06/29 14:06:47;;;;;;;;;21.67;20.00;;;;;28.75;45.27;34360.25;4907546;28;45820;-93
2023/06/29 14:09:13;;;;;;;;;23.33;18.00;;;;;28.96;44.19;34524.03;4916738;28;47139;-92
2023/06/29 14:11:40;;;;;;;;;19.33;17.00;;;;;28.97;43.93;35909.84;4933497;28;45472;-92
2023/06/29 14:14:05;;;;;;;;;17.67;15.67;;;;;29.19;43.68;36082.66;4924217;28;45449;-93
2023/06/29 14:16:31;;;;;;;;;18.33;16.33;;;;;29.50;44.26;35783.06;4937191;28;45411;-93
2023/06/29 14:18:58;;;;;;;;;18.00;15.67;;;;;29.07;43.95;36263.97;4914091;28;47415;-92
2023/06/29 14:21:23;;;;;;;;;18.33;16.33;;;;;29.43;44.04;36689.56;4924960;28;46289;-92
2023/06/29 14:23:49;;;;;;;;;17.00;15.33;;;;;29.40;44.47;35750.00;4930867;28;45464;-92
2023/06/29 14:26:15;;;;;;;;;19.00;18.00;;;;;28.91;44.44;36435.19;4987882;28;45673;-92
2023/06/29 14:28:40;;;;;;;;;20.33;18.00;;;;;29.28;43.75;38098.53;4916902;28;47534;-93
2023/06/29 14:31:06;;;;;;;;;16.67;15.33;;;;;28.68;44.21;36879.16;4926755;28;45494;-92
2023/06/29 14:33:33;;;;;;;;;21.67;18.67;;;;;28.89;44.81;37508.34;4903419;28;45455;-93
2023/06/29 14:35:58;;;;;;;;;17.67;16.00;;;;;28.75;44.82;37780.50;4920382;28;45450;-92
2023/06/29 14:38:24;;;;;;;;;17.00;15.33;;;;;28.33;44.56;38900.06;4931220;28;45472;-92
2023/06/29 14:40:49;;;;;;;;;17.00;15.00;;;;;28.57;44.80;38554.09;4914125;28;45384;-94
2023/06/29 14:43:15;;;;;;;;;18.00;16.00;;;;;28.27;44.71;38461.41;4903043;28;45490;-93
2023/06/29 14:45:41;;;;;;;;;14.67;14.67;;;;;28.75;44.93;38706.88;4935329;28;45343;-93
2023/06/29 14:48:06;;;;;;;;;15.00;14.67;;;;;28.22;45.25;37853.56;4920566;28;47218;-94
2023/06/29 14:50:32;;;;;;;;;18.33;18.33;;;;;28.18;45.88;37659.63;4908821;28;45487;-93
2023/06/29 14:52:57;;;;;;;;;13.33;10.33;;;;;28.27;45.89;37918.97;4914050;28;45954;-93
2023/06/29 14:55:23;;;;;;;;;17.00;16.00;;;;;28.52;45.94;37109.50;4916270;28;45307;-93
2023/06/29 14:57:48;;;;;;;;;16.00;14.67;;;;;27.94;46.34;36872.69;4914758;28;47166;-92
2023/06/29 15:00:14;;;;;;;;;13.33;12.67;;;;;28.44;46.74;36761.19;4909343;28;45387;-93
2023/06/29 15:02:39;;;;;;;;;17.33;16.67;;;;;28.39;46.94;35768.13;4925185;28;45607;-92
2023/06/29 15:05:05;;;;;;;;;17.67;15.33;;;;;28.05;46.66;35350.78;4918678;28;45650;-93
2023/06/29 15:07:30;;;;;;;;;16.33;15.67;;;;;28.35;47.09;34921.75;4929709;28;48720;-92
2023/06/29 15:09:55;;;;;;;;;16.33;16.33;;;;;27.98;46.72;34098.88;4918665;28;45810;-94
2023/06/29 15:12:21;;;;;;;;;15.00;13.00;;;;;28.32;47.23;33067.72;4927758;28;45883;-93
2023/06/29 15:14:46;;;;;;;;;17.00;15.33;;;;;27.88;47.31;32382.06;4904882;28;45591;-94
2023/06/29 15:17:12;;;;;;;;;17.00;14.33;;;;;28.00;47.97;30490.59;4924364;28;47822;-94
2023/06/29 15:19:37;;;;;;;;;18.00;15.67;;;;;28.01;48.26;28421.34;4920366;28;45543;-92
2023/06/29 15:22:03;;;;;;;;;20.00;14.33;;;;;28.35;48.20;27240.59;4927341;28;45521;-93
2023/06/29 15:24:28;;;;;;;;;17.33;14.67;;;;;28.06;48.63;26895.50;4917364;28;45427;-93
2023/06/29 15:26:53;;;;;;;;;16.33;15.00;;;;;28.31;48.36;25917.41;4919828;28;47231;-93
2023/06/29 15:29:19;;;;;;;;;17.67;14.00;;;;;28.25;48.48;26323.47;4903771;28;45549;-94
2023/06/29 15:31:44;;;;;;;;;17.67;16.33;;;;;27.63;48.59;25197.72;4910045;28;45863;-92
2023/06/29 15:36:40;;;;;;;;;15.67;13.33;;;;;27.88;49.00;24177.28;4953736;28;46353;-89
2023/06/29 15:39:06;;;;;;;;;14.00;13.00;;;;;27.95;49.70;23148.53;4956141;28;45389;-93
2023/06/29 15:41:31;;;;;;;;;11.67;11.33;;;;;27.52;50.02;21755.59;4946666;28;45770;-93
2023/06/29 15:44:01;;;;;;;;;11.33;11.33;;;;;27.18;49.92;21055.34;4957933;28;45469;-89
2023/06/29 15:46:27;;;;;;;;;11.33;9.33;;;;;27.74;50.11;21077.09;4953728;28;45588;-88
2023/06/29 15:48:54;;;;;;;;;11.00;8.33;;;;;27.66;49.76;21074.09;4949918;28;45746;-89
2023/06/29 15:51:20;;;;;;;;;8.33;8.33;;;;;27.40;49.63;20720.31;4949261;28;45641;-89
2023/06/29 15:53:46;;;;;;;;;8.00;7.67;;;;;27.63;49.95;20385.63;4953037;28;45580;-90
2023/06/29 15:56:26;;;;;;;;;4.67;4.67;;;;;27.01;50.05;20362.16;4955821;28;46497;-89
2023/06/29 15:58:54;;;;;;;;;6.00;6.00;;;;;26.36;49.56;20680.59;4936945;28;45422;-88
2023/06/29 16:01:25;;;;;;;;;6.00;6.00;;;;;26.64;49.71;21034.22;4952437;28;45349;-89
2023/06/29 16:03:56;;;;;;;;;7.00;7.00;;;;;26.68;49.75;21036.00;4955352;28;45657;-89
2023/06/29 16:06:32;;;;;;;;;6.00;3.00;;;;;27.39;50.02;20376.72;4951488;28;46036;-91
2023/06/29 16:09:06;;;;;;;;;5.00;5.00;;;;;27.07;49.63;20021.31;4955085;28;45437;-90
2023/06/29 16:11:41;;;;;;;;;7.33;6.33;;;;;27.42;50.23;20034.50;4952251;28;45496;-89
2023/06/29 16:14:21;;;;;;;;;5.00;5.00;;;;;26.54;50.02;20687.47;4950547;28;45753;-92
2023/06/29 16:16:47;;;;;;;;;7.33;5.00;;;;;26.40;50.00;20339.31;4945479;28;46379;-88
2023/06/29 16:19:14;;;;;;;;;4.00;4.00;;;;;26.81;50.22;19325.75;4963602;28;45596;-87
2023/06/29 16:22:23;;;;;;;;;5.00;5.00;;;;;27.31;50.50;18657.50;4955310;28;45370;-82